EGPK - Prestwick Airport
Distance from station: E 5mi, 14km
Updated: 10/18/2017 9:50pm
Light rain, Partly cloudy
Light rain, Partly cloudy
 Wind from ESE
Wind: ESE 7 mph , 11 km/h
Temperature: 52°F , 11°C
Dew Point: 50°F , 10°C
Humidity: 94%
Barometer: 29.59 inHg , 1002 hPa
Summary: Light Rain
Clouds: Partly Cloudy
Visibility: 6 miles , 10 km
Cloud details: Few Clouds 500 ft
Partly Cloudy 2000 ft
2017/10/19 04:50 EGPK 190450Z 12006KT 9999 -RA FEW005 SCT020 11/10 Q1002